sensor_id;sensor_type;location;lat;lon;timestamp;P1;durP1;ratioP1;P2;durP2;ratioP2
8698;SDS011;4386;51.236;6.742;2022-08-02T00:00:57;7.33;;;3.40;;
8698;SDS011;4386;51.236;6.742;2022-08-02T00:02:00;6.57;;;3.30;;
8698;SDS011;4386;51.236;6.742;2022-08-02T00:03:05;6.40;;;3.77;;
8698;SDS011;4386;51.236;6.742;2022-08-02T00:04:06;6.10;;;4.20;;
8698;SDS011;4386;51.236;6.742;2022-08-02T00:05:09;7.73;;;3.67;;
8698;SDS011;4386;51.236;6.742;2022-08-02T00:06:12;5.20;;;3.23;;
8698;SDS011;4386;51.236;6.742;2022-08-02T00:07:14;7.90;;;3.43;;
8698;SDS011;4386;51.236;6.742;2022-08-02T00:08:16;5.80;;;3.10;;
8698;SDS011;4386;51.236;6.742;2022-08-02T00:09:19;8.10;;;3.53;;
8698;SDS011;4386;51.236;6.742;2022-08-02T00:10:21;6.77;;;3.30;;
8698;SDS011;4386;51.236;6.742;2022-08-02T00:11:24;9.73;;;3.50;;
8698;SDS011;4386;51.236;6.742;2022-08-02T00:12:26;7.37;;;3.53;;
8698;SDS011;4386;51.236;6.742;2022-08-02T00:13:28;5.87;;;3.03;;
8698;SDS011;4386;51.236;6.742;2022-08-02T00:14:30;5.20;;;3.90;;
8698;SDS011;4386;51.236;6.742;2022-08-02T00:15:32;4.87;;;3.10;;
8698;SDS011;4386;51.236;6.742;2022-08-02T00:16:35;6.23;;;3.33;;
8698;SDS011;4386;51.236;6.742;2022-08-02T00:17:38;8.90;;;3.20;;
8698;SDS011;4386;51.236;6.742;2022-08-02T00:18:40;5.13;;;3.20;;
8698;SDS011;4386;51.236;6.742;2022-08-02T00:19:43;4.90;;;3.10;;
8698;SDS011;4386;51.236;6.742;2022-08-02T00:20:46;3.90;;;3.07;;
8698;SDS011;4386;51.236;6.742;2022-08-02T00:21:48;6.23;;;3.77;;
8698;SDS011;4386;51.236;6.742;2022-08-02T00:22:50;7.03;;;3.17;;
8698;SDS011;4386;51.236;6.742;2022-08-02T00:23:52;10.23;;;3.70;;
8698;SDS011;4386;51.236;6.742;2022-08-02T00:25:14;6.23;;;3.50;;
8698;SDS011;4386;51.236;6.742;2022-08-02T00:26:17;5.07;;;3.50;;
8698;SDS011;4386;51.236;6.742;2022-08-02T00:27:19;8.03;;;4.10;;
8698;SDS011;4386;51.236;6.742;2022-08-02T00:28:22;6.87;;;3.60;;
8698;SDS011;4386;51.236;6.742;2022-08-02T00:29:28;7.40;;;3.73;;
8698;SDS011;4386;51.236;6.742;2022-08-02T00:30:31;6.57;;;3.27;;
8698;SDS011;4386;51.236;6.742;2022-08-02T00:31:32;8.20;;;3.57;;
8698;SDS011;4386;51.236;6.742;2022-08-02T00:32:36;7.33;;;3.60;;
8698;SDS011;4386;51.236;6.742;2022-08-02T00:33:41;8.30;;;3.20;;
8698;SDS011;4386;51.236;6.742;2022-08-02T00:35:04;4.67;;;2.97;;
8698;SDS011;4386;51.236;6.742;2022-08-02T00:36:07;4.73;;;3.17;;
8698;SDS011;4386;51.236;6.742;2022-08-02T00:37:09;5.40;;;3.30;;
8698;SDS011;4386;51.236;6.742;2022-08-02T00:38:12;10.50;;;4.33;;
8698;SDS011;4386;51.236;6.742;2022-08-02T00:39:13;5.83;;;3.80;;
8698;SDS011;4386;51.236;6.742;2022-08-02T00:40:35;5.57;;;3.40;;
8698;SDS011;4386;51.236;6.742;2022-08-02T00:41:43;7.47;;;4.10;;
8698;SDS011;4386;51.236;6.742;2022-08-02T00:42:47;9.70;;;3.33;;
8698;SDS011;4386;51.236;6.742;2022-08-02T00:44:02;6.07;;;3.40;;
8698;SDS011;4386;51.236;6.742;2022-08-02T00:45:04;4.33;;;3.60;;
8698;SDS011;4386;51.236;6.742;2022-08-02T00:46:07;4.20;;;3.80;;
8698;SDS011;4386;51.236;6.742;2022-08-02T00:47:09;6.97;;;3.60;;
8698;SDS011;4386;51.236;6.742;2022-08-02T00:48:21;6.80;;;3.97;;
8698;SDS011;4386;51.236;6.742;2022-08-02T00:49:23;4.27;;;3.60;;
8698;SDS011;4386;51.236;6.742;2022-08-02T00:50:29;5.87;;;3.40;;
8698;SDS011;4386;51.236;6.742;2022-08-02T00:51:32;4.37;;;3.43;;
8698;SDS011;4386;51.236;6.742;2022-08-02T00:52:34;6.97;;;3.80;;
8698;SDS011;4386;51.236;6.742;2022-08-02T00:53:37;4.50;;;3.60;;
8698;SDS011;4386;51.236;6.742;2022-08-02T00:54:38;12.33;;;4.37;;
8698;SDS011;4386;51.236;6.742;2022-08-02T00:55:41;5.53;;;3.37;;
8698;SDS011;4386;51.236;6.742;2022-08-02T00:56:43;4.93;;;3.73;;
8698;SDS011;4386;51.236;6.742;2022-08-02T00:57:51;4.90;;;3.23;;
8698;SDS011;4386;51.236;6.742;2022-08-02T00:58:53;11.57;;;3.80;;
8698;SDS011;4386;51.236;6.742;2022-08-02T00:59:56;4.87;;;4.23;;
8698;SDS011;4386;51.236;6.742;2022-08-02T01:00:58;8.20;;;3.43;;
8698;SDS011;4386;51.236;6.742;2022-08-02T01:02:02;9.27;;;3.53;;
8698;SDS011;4386;51.236;6.742;2022-08-02T01:03:04;4.40;;;3.23;;
8698;SDS011;4386;51.236;6.742;2022-08-02T01:04:09;6.50;;;3.87;;
8698;SDS011;4386;51.236;6.742;2022-08-02T01:05:12;7.07;;;3.43;;
8698;SDS011;4386;51.236;6.742;2022-08-02T01:06:15;9.00;;;3.50;;
8698;SDS011;4386;51.236;6.742;2022-08-02T01:07:17;7.90;;;3.67;;
8698;SDS011;4386;51.236;6.742;2022-08-02T01:08:19;5.63;;;3.53;;
8698;SDS011;4386;51.236;6.742;2022-08-02T01:09:29;6.77;;;4.33;;
8698;SDS011;4386;51.236;6.742;2022-08-02T01:10:31;6.47;;;3.20;;
8698;SDS011;4386;51.236;6.742;2022-08-02T01:11:34;5.07;;;2.83;;
8698;SDS011;4386;51.236;6.742;2022-08-02T01:12:36;6.00;;;3.43;;
8698;SDS011;4386;51.236;6.742;2022-08-02T01:13:39;5.53;;;3.53;;
8698;SDS011;4386;51.236;6.742;2022-08-02T01:14:41;9.67;;;3.70;;
8698;SDS011;4386;51.236;6.742;2022-08-02T01:15:54;6.60;;;3.30;;
8698;SDS011;4386;51.236;6.742;2022-08-02T01:17:04;10.60;;;3.67;;
8698;SDS011;4386;51.236;6.742;2022-08-02T01:18:09;4.30;;;3.03;;
8698;SDS011;4386;51.236;6.742;2022-08-02T01:19:26;3.47;;;2.87;;
8698;SDS011;4386;51.236;6.742;2022-08-02T01:20:40;8.03;;;3.50;;
8698;SDS011;4386;51.236;6.742;2022-08-02T01:22:05;4.80;;;3.27;;
8698;SDS011;4386;51.236;6.742;2022-08-02T01:25:28;8.87;;;3.50;;
8698;SDS011;4386;51.236;6.742;2022-08-02T01:26:46;12.00;;;3.70;;
8698;SDS011;4386;51.236;6.742;2022-08-02T01:28:03;5.90;;;3.27;;
8698;SDS011;4386;51.236;6.742;2022-08-02T01:29:21;5.37;;;3.60;;
8698;SDS011;4386;51.236;6.742;2022-08-02T01:30:28;5.50;;;3.70;;
8698;SDS011;4386;51.236;6.742;2022-08-02T01:31:33;3.87;;;3.53;;
8698;SDS011;4386;51.236;6.742;2022-08-02T01:32:40;5.53;;;3.50;;
8698;SDS011;4386;51.236;6.742;2022-08-02T01:33:47;6.23;;;3.07;;
8698;SDS011;4386;51.236;6.742;2022-08-02T01:34:58;6.47;;;3.40;;
8698;SDS011;4386;51.236;6.742;2022-08-02T01:36:04;7.77;;;3.43;;
8698;SDS011;4386;51.236;6.742;2022-08-02T01:37:13;7.30;;;3.40;;
8698;SDS011;4386;51.236;6.742;2022-08-02T01:38:20;5.73;;;3.77;;
8698;SDS011;4386;51.236;6.742;2022-08-02T01:39:26;4.60;;;4.03;;
8698;SDS011;4386;51.236;6.742;2022-08-02T01:40:33;7.13;;;3.60;;
8698;SDS011;4386;51.236;6.742;2022-08-02T01:41:38;5.53;;;3.60;;
8698;SDS011;4386;51.236;6.742;2022-08-02T01:42:47;6.83;;;3.03;;
8698;SDS011;4386;51.236;6.742;2022-08-02T01:43:54;5.80;;;3.50;;
8698;SDS011;4386;51.236;6.742;2022-08-02T01:44:59;5.40;;;3.73;;
8698;SDS011;4386;51.236;6.742;2022-08-02T01:46:04;5.03;;;3.67;;
8698;SDS011;4386;51.236;6.742;2022-08-02T01:47:09;4.63;;;4.03;;
8698;SDS011;4386;51.236;6.742;2022-08-02T01:48:18;5.27;;;3.83;;
8698;SDS011;4386;51.236;6.742;2022-08-02T01:49:22;5.80;;;3.67;;
8698;SDS011;4386;51.236;6.742;2022-08-02T01:50:28;3.77;;;3.43;;
8698;SDS011;4386;51.236;6.742;2022-08-02T01:51:33;4.50;;;3.30;;
8698;SDS011;4386;51.236;6.742;2022-08-02T01:52:57;4.80;;;3.70;;
8698;SDS011;4386;51.236;6.742;2022-08-02T01:54:01;3.93;;;3.63;;
8698;SDS011;4386;51.236;6.742;2022-08-02T01:55:05;5.10;;;3.80;;
8698;SDS011;4386;51.236;6.742;2022-08-02T01:56:19;5.00;;;3.57;;
8698;SDS011;4386;51.236;6.742;2022-08-02T01:57:22;4.13;;;3.67;;
8698;SDS011;4386;51.236;6.742;2022-08-02T01:58:28;5.33;;;3.37;;
8698;SDS011;4386;51.236;6.742;2022-08-02T01:59:33;6.90;;;3.70;;
8698;SDS011;4386;51.236;6.742;2022-08-02T02:00:37;5.30;;;4.07;;
8698;SDS011;4386;51.236;6.742;2022-08-02T02:01:42;5.43;;;3.70;;
8698;SDS011;4386;51.236;6.742;2022-08-02T02:02:47;5.67;;;3.17;;
8698;SDS011;4386;51.236;6.742;2022-08-02T02:03:50;4.73;;;3.50;;
8698;SDS011;4386;51.236;6.742;2022-08-02T02:04:52;6.70;;;3.60;;
8698;SDS011;4386;51.236;6.742;2022-08-02T02:05:59;5.30;;;3.50;;
8698;SDS011;4386;51.236;6.742;2022-08-02T02:07:02;5.77;;;3.43;;
8698;SDS011;4386;51.236;6.742;2022-08-02T02:08:08;6.70;;;4.30;;
8698;SDS011;4386;51.236;6.742;2022-08-02T02:09:11;4.13;;;3.43;;
8698;SDS011;4386;51.236;6.742;2022-08-02T02:10:18;4.10;;;3.70;;
8698;SDS011;4386;51.236;6.742;2022-08-02T02:11:22;4.70;;;3.80;;
8698;SDS011;4386;51.236;6.742;2022-08-02T02:12:45;5.20;;;3.47;;
8698;SDS011;4386;51.236;6.742;2022-08-02T02:13:49;6.53;;;3.77;;
8698;SDS011;4386;51.236;6.742;2022-08-02T02:14:54;4.83;;;3.30;;
8698;SDS011;4386;51.236;6.742;2022-08-02T02:15:57;6.30;;;3.90;;
8698;SDS011;4386;51.236;6.742;2022-08-02T02:17:04;6.00;;;3.50;;
8698;SDS011;4386;51.236;6.742;2022-08-02T02:18:28;5.20;;;3.23;;
8698;SDS011;4386;51.236;6.742;2022-08-02T02:19:32;4.97;;;3.60;;
8698;SDS011;4386;51.236;6.742;2022-08-02T02:20:36;6.80;;;4.00;;
8698;SDS011;4386;51.236;6.742;2022-08-02T02:21:38;3.90;;;3.40;;
8698;SDS011;4386;51.236;6.742;2022-08-02T02:22:42;5.33;;;3.60;;
8698;SDS011;4386;51.236;6.742;2022-08-02T02:23:48;5.13;;;3.30;;
8698;SDS011;4386;51.236;6.742;2022-08-02T02:24:51;5.20;;;3.77;;
8698;SDS011;4386;51.236;6.742;2022-08-02T02:25:55;6.83;;;4.07;;
8698;SDS011;4386;51.236;6.742;2022-08-02T02:26:58;5.77;;;4.47;;
8698;SDS011;4386;51.236;6.742;2022-08-02T02:28:03;6.97;;;4.03;;
8698;SDS011;4386;51.236;6.742;2022-08-02T02:29:08;4.97;;;4.43;;
8698;SDS011;4386;51.236;6.742;2022-08-02T02:30:14;10.93;;;4.53;;
8698;SDS011;4386;51.236;6.742;2022-08-02T02:31:17;6.73;;;3.70;;
8698;SDS011;4386;51.236;6.742;2022-08-02T02:32:22;5.70;;;4.07;;
8698;SDS011;4386;51.236;6.742;2022-08-02T02:33:27;9.77;;;3.90;;
8698;SDS011;4386;51.236;6.742;2022-08-02T02:34:34;4.87;;;3.20;;
8698;SDS011;4386;51.236;6.742;2022-08-02T02:35:39;7.43;;;4.33;;
8698;SDS011;4386;51.236;6.742;2022-08-02T02:36:45;8.30;;;3.33;;
8698;SDS011;4386;51.236;6.742;2022-08-02T02:37:49;5.80;;;3.60;;
8698;SDS011;4386;51.236;6.742;2022-08-02T02:38:59;4.43;;;3.60;;
8698;SDS011;4386;51.236;6.742;2022-08-02T02:40:03;10.40;;;3.93;;
8698;SDS011;4386;51.236;6.742;2022-08-02T02:41:07;8.10;;;4.20;;
8698;SDS011;4386;51.236;6.742;2022-08-02T02:42:12;5.13;;;3.57;;
8698;SDS011;4386;51.236;6.742;2022-08-02T02:43:17;4.67;;;3.73;;
8698;SDS011;4386;51.236;6.742;2022-08-02T02:44:20;10.70;;;4.77;;
8698;SDS011;4386;51.236;6.742;2022-08-02T02:45:26;8.10;;;4.00;;
8698;SDS011;4386;51.236;6.742;2022-08-02T02:46:31;5.63;;;3.67;;
8698;SDS011;4386;51.236;6.742;2022-08-02T02:47:34;7.03;;;3.80;;
8698;SDS011;4386;51.236;6.742;2022-08-02T02:48:41;6.50;;;4.00;;
8698;SDS011;4386;51.236;6.742;2022-08-02T02:49:44;6.20;;;4.20;;
8698;SDS011;4386;51.236;6.742;2022-08-02T02:50:48;4.40;;;3.70;;
8698;SDS011;4386;51.236;6.742;2022-08-02T02:51:51;6.50;;;3.90;;
8698;SDS011;4386;51.236;6.742;2022-08-02T02:52:55;6.73;;;4.00;;
8698;SDS011;4386;51.236;6.742;2022-08-02T02:53:58;6.73;;;4.00;;
8698;SDS011;4386;51.236;6.742;2022-08-02T02:55:21;7.27;;;4.17;;
8698;SDS011;4386;51.236;6.742;2022-08-02T02:56:25;5.23;;;3.70;;
8698;SDS011;4386;51.236;6.742;2022-08-02T02:57:27;5.60;;;3.87;;
8698;SDS011;4386;51.236;6.742;2022-08-02T02:58:31;8.10;;;3.80;;
8698;SDS011;4386;51.236;6.742;2022-08-02T02:59:33;5.50;;;4.00;;
8698;SDS011;4386;51.236;6.742;2022-08-02T03:00:50;6.30;;;4.07;;
8698;SDS011;4386;51.236;6.742;2022-08-02T03:02:11;6.20;;;4.27;;
8698;SDS011;4386;51.236;6.742;2022-08-02T03:03:15;7.57;;;4.73;;
8698;SDS011;4386;51.236;6.742;2022-08-02T03:04:22;6.33;;;4.27;;
8698;SDS011;4386;51.236;6.742;2022-08-02T03:05:26;10.80;;;4.67;;
8698;SDS011;4386;51.236;6.742;2022-08-02T03:06:28;9.20;;;4.47;;
8698;SDS011;4386;51.236;6.742;2022-08-02T03:07:31;6.20;;;4.30;;
8698;SDS011;4386;51.236;6.742;2022-08-02T03:08:35;10.83;;;4.80;;
8698;SDS011;4386;51.236;6.742;2022-08-02T03:09:37;7.00;;;4.70;;
8698;SDS011;4386;51.236;6.742;2022-08-02T03:10:41;11.13;;;4.80;;
8698;SDS011;4386;51.236;6.742;2022-08-02T03:11:44;6.90;;;4.30;;
8698;SDS011;4386;51.236;6.742;2022-08-02T03:12:47;8.00;;;4.93;;
8698;SDS011;4386;51.236;6.742;2022-08-02T03:13:49;8.90;;;4.50;;
8698;SDS011;4386;51.236;6.742;2022-08-02T03:14:53;6.57;;;5.47;;
8698;SDS011;4386;51.236;6.742;2022-08-02T03:15:58;8.47;;;4.57;;
8698;SDS011;4386;51.236;6.742;2022-08-02T03:17:01;12.80;;;5.23;;
8698;SDS011;4386;51.236;6.742;2022-08-02T03:18:03;7.90;;;4.97;;
8698;SDS011;4386;51.236;6.742;2022-08-02T03:19:08;22.57;;;5.90;;
8698;SDS011;4386;51.236;6.742;2022-08-02T03:20:11;9.50;;;4.87;;
8698;SDS011;4386;51.236;6.742;2022-08-02T03:21:15;7.60;;;4.90;;
8698;SDS011;4386;51.236;6.742;2022-08-02T03:22:17;12.57;;;5.53;;
8698;SDS011;4386;51.236;6.742;2022-08-02T03:23:19;7.47;;;5.13;;
8698;SDS011;4386;51.236;6.742;2022-08-02T03:24:21;6.00;;;5.00;;
8698;SDS011;4386;51.236;6.742;2022-08-02T03:25:28;8.57;;;5.53;;
8698;SDS011;4386;51.236;6.742;2022-08-02T03:26:30;13.03;;;5.47;;
8698;SDS011;4386;51.236;6.742;2022-08-02T03:27:33;10.40;;;5.50;;
8698;SDS011;4386;51.236;6.742;2022-08-02T03:28:34;5.57;;;4.70;;
8698;SDS011;4386;51.236;6.742;2022-08-02T03:29:37;8.03;;;5.90;;
8698;SDS011;4386;51.236;6.742;2022-08-02T03:30:39;7.23;;;5.37;;
8698;SDS011;4386;51.236;6.742;2022-08-02T03:31:43;11.00;;;5.63;;
8698;SDS011;4386;51.236;6.742;2022-08-02T03:32:46;10.67;;;5.60;;
8698;SDS011;4386;51.236;6.742;2022-08-02T03:33:50;7.83;;;4.77;;
8698;SDS011;4386;51.236;6.742;2022-08-02T03:34:52;7.10;;;4.67;;
8698;SDS011;4386;51.236;6.742;2022-08-02T03:35:56;10.07;;;5.10;;
8698;SDS011;4386;51.236;6.742;2022-08-02T03:37:01;6.00;;;4.90;;
8698;SDS011;4386;51.236;6.742;2022-08-02T03:38:05;11.30;;;5.20;;
8698;SDS011;4386;51.236;6.742;2022-08-02T03:39:07;10.33;;;5.33;;
8698;SDS011;4386;51.236;6.742;2022-08-02T03:40:12;8.10;;;5.30;;
8698;SDS011;4386;51.236;6.742;2022-08-02T03:41:15;9.77;;;5.33;;
8698;SDS011;4386;51.236;6.742;2022-08-02T03:42:20;7.90;;;5.00;;
8698;SDS011;4386;51.236;6.742;2022-08-02T03:43:23;7.27;;;5.50;;
8698;SDS011;4386;51.236;6.742;2022-08-02T03:44:29;6.33;;;5.07;;
8698;SDS011;4386;51.236;6.742;2022-08-02T03:45:31;12.53;;;4.93;;
8698;SDS011;4386;51.236;6.742;2022-08-02T03:46:35;10.20;;;5.33;;
8698;SDS011;4386;51.236;6.742;2022-08-02T03:47:41;9.00;;;4.90;;
8698;SDS011;4386;51.236;6.742;2022-08-02T03:48:48;8.13;;;5.90;;
8698;SDS011;4386;51.236;6.742;2022-08-02T03:49:52;10.13;;;4.90;;
8698;SDS011;4386;51.236;6.742;2022-08-02T03:50:56;5.97;;;5.00;;
8698;SDS011;4386;51.236;6.742;2022-08-02T03:51:59;6.50;;;5.57;;
8698;SDS011;4386;51.236;6.742;2022-08-02T03:53:02;11.13;;;6.00;;
8698;SDS011;4386;51.236;6.742;2022-08-02T03:54:05;6.83;;;5.47;;
8698;SDS011;4386;51.236;6.742;2022-08-02T03:55:08;8.93;;;5.20;;
8698;SDS011;4386;51.236;6.742;2022-08-02T03:56:11;6.13;;;5.53;;
8698;SDS011;4386;51.236;6.742;2022-08-02T03:57:15;9.63;;;5.60;;
8698;SDS011;4386;51.236;6.742;2022-08-02T03:58:17;7.10;;;5.30;;
8698;SDS011;4386;51.236;6.742;2022-08-02T03:59:21;10.27;;;6.10;;
8698;SDS011;4386;51.236;6.742;2022-08-02T04:00:23;8.10;;;5.67;;
8698;SDS011;4386;51.236;6.742;2022-08-02T04:01:26;8.07;;;5.30;;
8698;SDS011;4386;51.236;6.742;2022-08-02T04:02:29;10.67;;;6.40;;
8698;SDS011;4386;51.236;6.742;2022-08-02T04:03:33;7.17;;;5.80;;
8698;SDS011;4386;51.236;6.742;2022-08-02T04:04:37;5.80;;;4.90;;
8698;SDS011;4386;51.236;6.742;2022-08-02T04:05:40;7.13;;;5.83;;
8698;SDS011;4386;51.236;6.742;2022-08-02T04:07:03;10.97;;;6.10;;
8698;SDS011;4386;51.236;6.742;2022-08-02T04:08:08;7.53;;;5.87;;
8698;SDS011;4386;51.236;6.742;2022-08-02T04:09:29;8.67;;;6.63;;
8698;SDS011;4386;51.236;6.742;2022-08-02T04:10:33;15.70;;;6.87;;
8698;SDS011;4386;51.236;6.742;2022-08-02T04:11:55;13.23;;;6.00;;
8698;SDS011;4386;51.236;6.742;2022-08-02T04:12:57;11.17;;;7.13;;
8698;SDS011;4386;51.236;6.742;2022-08-02T04:14:00;10.60;;;6.77;;
8698;SDS011;4386;51.236;6.742;2022-08-02T04:15:03;11.17;;;7.13;;
8698;SDS011;4386;51.236;6.742;2022-08-02T04:16:09;8.80;;;6.90;;
8698;SDS011;4386;51.236;6.742;2022-08-02T04:17:16;8.50;;;7.20;;
8698;SDS011;4386;51.236;6.742;2022-08-02T04:18:23;6.93;;;6.13;;
8698;SDS011;4386;51.236;6.742;2022-08-02T04:19:30;10.93;;;6.40;;
8698;SDS011;4386;51.236;6.742;2022-08-02T04:20:37;11.13;;;7.17;;
8698;SDS011;4386;51.236;6.742;2022-08-02T04:21:40;8.70;;;6.70;;
8698;SDS011;4386;51.236;6.742;2022-08-02T04:22:54;9.20;;;6.77;;
8698;SDS011;4386;51.236;6.742;2022-08-02T04:24:00;11.13;;;7.47;;
8698;SDS011;4386;51.236;6.742;2022-08-02T04:25:05;10.00;;;7.40;;
8698;SDS011;4386;51.236;6.742;2022-08-02T04:26:17;9.50;;;6.83;;
8698;SDS011;4386;51.236;6.742;2022-08-02T04:27:28;12.57;;;6.97;;
8698;SDS011;4386;51.236;6.742;2022-08-02T04:28:51;13.40;;;8.37;;
8698;SDS011;4386;51.236;6.742;2022-08-02T04:29:55;9.80;;;7.70;;
8698;SDS011;4386;51.236;6.742;2022-08-02T04:30:58;14.50;;;7.97;;
8698;SDS011;4386;51.236;6.742;2022-08-02T04:32:02;8.30;;;7.47;;
8698;SDS011;4386;51.236;6.742;2022-08-02T04:33:05;8.00;;;6.23;;
8698;SDS011;4386;51.236;6.742;2022-08-02T04:34:08;9.60;;;7.50;;
8698;SDS011;4386;51.236;6.742;2022-08-02T04:35:17;8.10;;;7.20;;
8698;SDS011;4386;51.236;6.742;2022-08-02T04:36:20;7.57;;;6.87;;
8698;SDS011;4386;51.236;6.742;2022-08-02T04:37:32;9.80;;;7.47;;
8698;SDS011;4386;51.236;6.742;2022-08-02T04:38:35;8.70;;;7.30;;
8698;SDS011;4386;51.236;6.742;2022-08-02T04:39:37;14.17;;;8.00;;
8698;SDS011;4386;51.236;6.742;2022-08-02T04:40:48;10.23;;;7.10;;
8698;SDS011;4386;51.236;6.742;2022-08-02T04:41:52;14.67;;;7.20;;
8698;SDS011;4386;51.236;6.742;2022-08-02T04:42:58;12.47;;;7.97;;
8698;SDS011;4386;51.236;6.742;2022-08-02T04:44:01;8.10;;;7.30;;
8698;SDS011;4386;51.236;6.742;2022-08-02T04:45:03;8.67;;;7.63;;
8698;SDS011;4386;51.236;6.742;2022-08-02T04:46:06;8.97;;;7.60;;
8698;SDS011;4386;51.236;6.742;2022-08-02T04:47:08;10.40;;;7.50;;
8698;SDS011;4386;51.236;6.742;2022-08-02T04:48:11;7.10;;;6.30;;
8698;SDS011;4386;51.236;6.742;2022-08-02T04:49:12;9.67;;;7.73;;
8698;SDS011;4386;51.236;6.742;2022-08-02T04:50:16;12.77;;;7.20;;
8698;SDS011;4386;51.236;6.742;2022-08-02T04:51:21;13.90;;;7.63;;
8698;SDS011;4386;51.236;6.742;2022-08-02T04:52:38;8.93;;;7.93;;
8698;SDS011;4386;51.236;6.742;2022-08-02T04:53:46;9.93;;;7.60;;
8698;SDS011;4386;51.236;6.742;2022-08-02T04:54:48;12.03;;;7.17;;
8698;SDS011;4386;51.236;6.742;2022-08-02T04:55:51;9.57;;;8.00;;
8698;SDS011;4386;51.236;6.742;2022-08-02T04:56:53;10.00;;;8.10;;
8698;SDS011;4386;51.236;6.742;2022-08-02T04:57:57;9.43;;;7.70;;
8698;SDS011;4386;51.236;6.742;2022-08-02T04:58:59;17.17;;;8.90;;
8698;SDS011;4386;51.236;6.742;2022-08-02T05:00:03;8.77;;;7.87;;
8698;SDS011;4386;51.236;6.742;2022-08-02T05:01:10;12.77;;;8.43;;
8698;SDS011;4386;51.236;6.742;2022-08-02T05:02:13;9.30;;;7.70;;
8698;SDS011;4386;51.236;6.742;2022-08-02T05:03:15;12.23;;;8.40;;
8698;SDS011;4386;51.236;6.742;2022-08-02T05:04:17;12.07;;;9.20;;
8698;SDS011;4386;51.236;6.742;2022-08-02T05:05:20;9.80;;;8.00;;
8698;SDS011;4386;51.236;6.742;2022-08-02T05:06:23;10.30;;;8.27;;
8698;SDS011;4386;51.236;6.742;2022-08-02T05:07:25;11.50;;;8.80;;
8698;SDS011;4386;51.236;6.742;2022-08-02T05:08:36;10.10;;;8.03;;
8698;SDS011;4386;51.236;6.742;2022-08-02T05:09:39;8.97;;;8.00;;
8698;SDS011;4386;51.236;6.742;2022-08-02T05:10:40;15.90;;;8.80;;
8698;SDS011;4386;51.236;6.742;2022-08-02T05:11:43;11.10;;;9.00;;
8698;SDS011;4386;51.236;6.742;2022-08-02T05:12:55;8.87;;;7.30;;
8698;SDS011;4386;51.236;6.742;2022-08-02T05:13:57;9.57;;;7.87;;
8698;SDS011;4386;51.236;6.742;2022-08-02T05:14:59;10.07;;;8.03;;
8698;SDS011;4386;51.236;6.742;2022-08-02T05:16:02;16.93;;;8.60;;
8698;SDS011;4386;51.236;6.742;2022-08-02T05:17:05;22.77;;;9.03;;
8698;SDS011;4386;51.236;6.742;2022-08-02T05:18:07;11.27;;;8.87;;
8698;SDS011;4386;51.236;6.742;2022-08-02T05:19:10;12.93;;;8.87;;
8698;SDS011;4386;51.236;6.742;2022-08-02T05:20:11;11.50;;;8.60;;
8698;SDS011;4386;51.236;6.742;2022-08-02T05:21:16;12.80;;;8.40;;
8698;SDS011;4386;51.236;6.742;2022-08-02T05:22:19;10.07;;;8.20;;
8698;SDS011;4386;51.236;6.742;2022-08-02T05:23:20;11.30;;;8.47;;
8698;SDS011;4386;51.236;6.742;2022-08-02T05:24:23;10.53;;;9.00;;
8698;SDS011;4386;51.236;6.742;2022-08-02T05:25:25;11.73;;;8.60;;
8698;SDS011;4386;51.236;6.742;2022-08-02T05:26:27;13.77;;;9.30;;
8698;SDS011;4386;51.236;6.742;2022-08-02T05:27:29;9.17;;;8.20;;
8698;SDS011;4386;51.236;6.742;2022-08-02T05:28:33;17.37;;;9.67;;
8698;SDS011;4386;51.236;6.742;2022-08-02T05:29:36;17.70;;;11.50;;
8698;SDS011;4386;51.236;6.742;2022-08-02T05:30:53;11.43;;;9.23;;
8698;SDS011;4386;51.236;6.742;2022-08-02T05:31:55;11.77;;;9.83;;
8698;SDS011;4386;51.236;6.742;2022-08-02T05:32:57;13.47;;;10.43;;
8698;SDS011;4386;51.236;6.742;2022-08-02T05:34:00;9.60;;;8.67;;
8698;SDS011;4386;51.236;6.742;2022-08-02T05:35:02;13.17;;;9.90;;
8698;SDS011;4386;51.236;6.742;2022-08-02T05:36:05;14.07;;;9.47;;
8698;SDS011;4386;51.236;6.742;2022-08-02T05:37:08;10.87;;;8.43;;
8698;SDS011;4386;51.236;6.742;2022-08-02T05:38:13;18.30;;;9.23;;
8698;SDS011;4386;51.236;6.742;2022-08-02T05:39:15;12.57;;;9.63;;
8698;SDS011;4386;51.236;6.742;2022-08-02T05:40:19;11.67;;;8.00;;
8698;SDS011;4386;51.236;6.742;2022-08-02T05:41:26;14.77;;;8.60;;
8698;SDS011;4386;51.236;6.742;2022-08-02T05:42:30;11.77;;;8.33;;
8698;SDS011;4386;51.236;6.742;2022-08-02T05:43:32;8.87;;;7.60;;
8698;SDS011;4386;51.236;6.742;2022-08-02T05:44:35;13.60;;;8.80;;
8698;SDS011;4386;51.236;6.742;2022-08-02T05:45:37;12.53;;;9.77;;
8698;SDS011;4386;51.236;6.742;2022-08-02T05:46:40;11.03;;;8.40;;
8698;SDS011;4386;51.236;6.742;2022-08-02T05:47:41;14.00;;;9.20;;
8698;SDS011;4386;51.236;6.742;2022-08-02T05:48:44;11.97;;;8.93;;
8698;SDS011;4386;51.236;6.742;2022-08-02T05:49:46;16.10;;;9.13;;
8698;SDS011;4386;51.236;6.742;2022-08-02T05:50:49;10.10;;;8.93;;
8698;SDS011;4386;51.236;6.742;2022-08-02T05:51:58;10.37;;;8.40;;
8698;SDS011;4386;51.236;6.742;2022-08-02T05:53:07;14.03;;;8.63;;
8698;SDS011;4386;51.236;6.742;2022-08-02T05:54:26;12.47;;;8.60;;
8698;SDS011;4386;51.236;6.742;2022-08-02T05:55:41;14.07;;;9.07;;
8698;SDS011;4386;51.236;6.742;2022-08-02T05:56:50;14.13;;;8.80;;
8698;SDS011;4386;51.236;6.742;2022-08-02T05:58:00;14.33;;;9.50;;
8698;SDS011;4386;51.236;6.742;2022-08-02T05:59:09;14.00;;;9.80;;
8698;SDS011;4386;51.236;6.742;2022-08-02T06:00:18;13.67;;;9.13;;
8698;SDS011;4386;51.236;6.742;2022-08-02T06:01:26;15.50;;;8.67;;
8698;SDS011;4386;51.236;6.742;2022-08-02T06:02:35;12.87;;;8.57;;
8698;SDS011;4386;51.236;6.742;2022-08-02T06:03:59;12.77;;;8.57;;
8698;SDS011;4386;51.236;6.742;2022-08-02T06:05:03;13.97;;;8.80;;
8698;SDS011;4386;51.236;6.742;2022-08-02T06:06:10;12.90;;;8.67;;
8698;SDS011;4386;51.236;6.742;2022-08-02T06:07:13;12.70;;;8.90;;
8698;SDS011;4386;51.236;6.742;2022-08-02T06:08:22;13.13;;;8.90;;
8698;SDS011;4386;51.236;6.742;2022-08-02T06:09:31;11.63;;;9.83;;
8698;SDS011;4386;51.236;6.742;2022-08-02T06:10:33;11.33;;;9.47;;
8698;SDS011;4386;51.236;6.742;2022-08-02T06:11:40;11.53;;;8.30;;
8698;SDS011;4386;51.236;6.742;2022-08-02T06:13:07;15.27;;;9.30;;
8698;SDS011;4386;51.236;6.742;2022-08-02T06:14:14;14.07;;;10.50;;
8698;SDS011;4386;51.236;6.742;2022-08-02T06:15:17;13.13;;;9.33;;
8698;SDS011;4386;51.236;6.742;2022-08-02T06:16:21;12.20;;;9.37;;
8698;SDS011;4386;51.236;6.742;2022-08-02T06:17:33;13.13;;;10.07;;
8698;SDS011;4386;51.236;6.742;2022-08-02T06:18:42;11.17;;;9.40;;
8698;SDS011;4386;51.236;6.742;2022-08-02T06:19:45;13.27;;;9.97;;
8698;SDS011;4386;51.236;6.742;2022-08-02T06:20:52;11.50;;;9.00;;
8698;SDS011;4386;51.236;6.742;2022-08-02T06:22:00;13.13;;;9.67;;
8698;SDS011;4386;51.236;6.742;2022-08-02T06:23:37;15.10;;;9.73;;
8698;SDS011;4386;51.236;6.742;2022-08-02T06:24:59;23.73;;;9.07;;
8698;SDS011;4386;51.236;6.742;2022-08-02T06:26:03;15.13;;;10.27;;
8698;SDS011;4386;51.236;6.742;2022-08-02T06:27:08;14.03;;;9.10;;
8698;SDS011;4386;51.236;6.742;2022-08-02T06:28:12;10.57;;;9.30;;
8698;SDS011;4386;51.236;6.742;2022-08-02T06:29:17;11.73;;;8.73;;
8698;SDS011;4386;51.236;6.742;2022-08-02T06:30:23;13.10;;;10.00;;
8698;SDS011;4386;51.236;6.742;2022-08-02T06:31:26;14.30;;;10.07;;
8698;SDS011;4386;51.236;6.742;2022-08-02T06:32:28;13.90;;;10.23;;
8698;SDS011;4386;51.236;6.742;2022-08-02T06:33:33;12.20;;;10.30;;
8698;SDS011;4386;51.236;6.742;2022-08-02T06:34:35;12.57;;;9.50;;
8698;SDS011;4386;51.236;6.742;2022-08-02T06:35:40;14.47;;;10.53;;
8698;SDS011;4386;51.236;6.742;2022-08-02T06:36:47;15.03;;;10.13;;
8698;SDS011;4386;51.236;6.742;2022-08-02T06:37:55;12.50;;;9.90;;
8698;SDS011;4386;51.236;6.742;2022-08-02T06:39:02;12.07;;;9.50;;
8698;SDS011;4386;51.236;6.742;2022-08-02T06:40:10;12.30;;;9.10;;
8698;SDS011;4386;51.236;6.742;2022-08-02T06:41:18;18.67;;;10.40;;
8698;SDS011;4386;51.236;6.742;2022-08-02T06:42:23;13.73;;;10.20;;
8698;SDS011;4386;51.236;6.742;2022-08-02T06:43:34;18.80;;;10.97;;
8698;SDS011;4386;51.236;6.742;2022-08-02T06:44:44;12.63;;;10.77;;
8698;SDS011;4386;51.236;6.742;2022-08-02T06:45:53;17.37;;;10.27;;
8698;SDS011;4386;51.236;6.742;2022-08-02T06:47:15;13.83;;;10.67;;
8698;SDS011;4386;51.236;6.742;2022-08-02T06:48:18;16.30;;;9.97;;